Observations for RIETI, Italy (LIQN)

LIQN 251750Z VRB03KT CAVOK 19/17 Q1018  
LIQN 251650Z VRB03KT 9000 -RA NSC 19/17 Q1018 RETS  
LIQN 251550Z 30004KT 9999 TS BKN048CB 19/17 Q1018 RERA  
LIQN 251500Z 36011KT 9000 TSRA BKN050CB 21/15 Q1017
LIQN 251450Z 02006KT 9000 TS VCSH BKN050CB 25/16 Q1017  
LIQN 251350Z 11012KT 9999 TS VCSH BKN050CB 27/14 Q1016  
LIQN 251310Z 18006KT 9999 TS VCSH BKN050CB 29/15 Q1016
LIQN 251250Z 20007KT 9999 VCTS SCT050TCU 28/16 Q1016
LIQN 251150Z 31006KT 9999 SCT050TCU 30/13 Q1016 
LIQN 251050Z VRB03KT 9999 SCT050TCU 29/13 Q1017 
LIQN 250950Z 36004KT CAVOK 27/14 Q1018  
LIQN 250850Z 33005KT CAVOK 24/17 Q1018  
LIQN 250800Z VRB03KT CAVOK 22/16 Q1018